sensor_id;sensor_type;location;lat;lon;timestamp;pressure;altitude;pressure_sealevel;temperature;humidity
64115;BME280;62188;35.640;139.748;2023-03-01T00:00:39;102029.50;;;19.02;22.21
64115;BME280;62188;35.640;139.748;2023-03-01T00:03:04;102023.94;;;19.24;21.79
64115;BME280;62188;35.640;139.748;2023-03-01T00:05:30;102024.61;;;19.45;22.11
64115;BME280;62188;35.640;139.748;2023-03-01T00:07:55;102025.60;;;19.70;22.13
64115;BME280;62188;35.640;139.748;2023-03-01T00:10:21;102024.78;;;19.75;21.67
64115;BME280;62188;35.640;139.748;2023-03-01T00:12:47;102026.34;;;20.13;21.70
64115;BME280;62188;35.640;139.748;2023-03-01T00:15:12;102027.76;;;20.14;21.07
64115;BME280;62188;35.640;139.748;2023-03-01T00:17:38;102023.16;;;20.72;21.21
64115;BME280;62188;35.640;139.748;2023-03-01T00:20:03;102013.34;;;20.61;21.10
64115;BME280;62188;35.640;139.748;2023-03-01T00:22:29;102008.84;;;20.84;21.04
64115;BME280;62188;35.640;139.748;2023-03-01T00:24:54;102004.74;;;20.72;21.34
64115;BME280;62188;35.640;139.748;2023-03-01T00:27:20;102008.22;;;20.99;21.19
64115;BME280;62188;35.640;139.748;2023-03-01T00:29:45;102012.08;;;21.36;20.65
64115;BME280;62188;35.640;139.748;2023-03-01T00:32:11;102009.12;;;21.51;20.43
64115;BME280;62188;35.640;139.748;2023-03-01T00:34:36;102006.24;;;21.75;20.52
64115;BME280;62188;35.640;139.748;2023-03-01T00:37:02;101999.05;;;22.13;20.27
64115;BME280;62188;35.640;139.748;2023-03-01T00:39:27;101998.88;;;22.21;19.95
64115;BME280;62188;35.640;139.748;2023-03-01T00:41:53;101989.53;;;22.58;20.01
64115;BME280;62188;35.640;139.748;2023-03-01T00:44:18;101989.26;;;22.82;20.14
64115;BME280;62188;35.640;139.748;2023-03-01T00:46:44;101985.04;;;23.08;19.61
64115;BME280;62188;35.640;139.748;2023-03-01T00:49:09;101979.28;;;23.22;19.97
64115;BME280;62188;35.640;139.748;2023-03-01T00:51:35;101975.16;;;22.57;19.73
64115;BME280;62188;35.640;139.748;2023-03-01T00:54:02;101966.90;;;22.79;20.01
64115;BME280;62188;35.640;139.748;2023-03-01T00:56:26;101959.45;;;22.43;19.76
64115;BME280;62188;35.640;139.748;2023-03-01T00:58:51;101956.89;;;22.42;19.81
64115;BME280;62188;35.640;139.748;2023-03-01T01:01:20;101955.84;;;21.93;20.05
64115;BME280;62188;35.640;139.748;2023-03-01T01:03:42;101952.58;;;22.05;19.85
64115;BME280;62188;35.640;139.748;2023-03-01T01:06:14;101949.79;;;21.91;20.19
64115;BME280;62188;35.640;139.748;2023-03-01T01:08:34;101947.00;;;21.73;20.50
64115;BME280;62188;35.640;139.748;2023-03-01T01:10:59;101946.73;;;21.97;20.76
64115;BME280;62188;35.640;139.748;2023-03-01T01:13:25;101947.65;;;22.20;20.79
64115;BME280;62188;35.640;139.748;2023-03-01T01:15:50;101945.27;;;22.00;20.35
64115;BME280;62188;35.640;139.748;2023-03-01T01:18:16;101945.34;;;22.31;20.18
64115;BME280;62188;35.640;139.748;2023-03-01T01:20:41;101945.35;;;22.49;20.40
64115;BME280;62188;35.640;139.748;2023-03-01T01:23:07;101949.19;;;22.44;20.28
64115;BME280;62188;35.640;139.748;2023-03-01T01:25:35;101948.08;;;21.94;20.08
64115;BME280;62188;35.640;139.748;2023-03-01T01:27:58;101952.89;;;21.84;20.25
64115;BME280;62188;35.640;139.748;2023-03-01T01:30:23;101950.46;;;21.79;20.56
64115;BME280;62188;35.640;139.748;2023-03-01T01:32:49;101954.41;;;21.59;20.38
64115;BME280;62188;35.640;139.748;2023-03-01T01:35:14;101957.67;;;21.35;20.22
64115;BME280;62188;35.640;139.748;2023-03-01T01:37:40;101953.12;;;21.30;20.46
64115;BME280;62188;35.640;139.748;2023-03-01T01:40:06;101944.69;;;21.16;20.47
64115;BME280;62188;35.640;139.748;2023-03-01T01:42:31;101937.08;;;21.16;20.64
64115;BME280;62188;35.640;139.748;2023-03-01T01:47:23;101933.63;;;21.08;20.24
64115;BME280;62188;35.640;139.748;2023-03-01T01:49:49;101929.27;;;21.22;20.63
64115;BME280;62188;35.640;139.748;2023-03-01T01:52:16;101929.90;;;21.19;19.98
64115;BME280;62188;35.640;139.748;2023-03-01T01:54:43;101924.07;;;21.31;19.80
64115;BME280;62188;35.640;139.748;2023-03-01T01:57:08;101919.07;;;21.79;19.11
64115;BME280;62188;35.640;139.748;2023-03-01T01:59:30;101914.22;;;21.97;19.06
64115;BME280;62188;35.640;139.748;2023-03-01T02:01:55;101906.55;;;22.00;18.67
64115;BME280;62188;35.640;139.748;2023-03-01T02:04:21;101900.86;;;22.25;18.35
64115;BME280;62188;35.640;139.748;2023-03-01T02:06:51;101895.14;;;22.30;18.23
64115;BME280;62188;35.640;139.748;2023-03-01T02:09:14;101882.52;;;22.77;18.07
64115;BME280;62188;35.640;139.748;2023-03-01T02:11:37;101874.23;;;22.99;17.66
64115;BME280;62188;35.640;139.748;2023-03-01T02:14:02;101872.16;;;22.95;17.52
64115;BME280;62188;35.640;139.748;2023-03-01T02:16:28;101864.87;;;22.66;16.68
64115;BME280;62188;35.640;139.748;2023-03-01T02:18:53;101861.38;;;23.12;16.71
64115;BME280;62188;35.640;139.748;2023-03-01T02:21:29;101852.85;;;23.48;16.51
64115;BME280;62188;35.640;139.748;2023-03-01T02:23:44;101844.21;;;23.79;16.92
64115;BME280;62188;35.640;139.748;2023-03-01T02:26:15;101834.78;;;24.23;16.42
64115;BME280;62188;35.640;139.748;2023-03-01T02:28:36;101832.51;;;24.49;15.77
64115;BME280;62188;35.640;139.748;2023-03-01T02:31:02;101836.20;;;24.12;15.89
64115;BME280;62188;35.640;139.748;2023-03-01T02:33:26;101827.78;;;24.64;15.52
64115;BME280;62188;35.640;139.748;2023-03-01T02:35:52;101821.06;;;24.85;15.08
64115;BME280;62188;35.640;139.748;2023-03-01T02:38:17;101810.24;;;25.04;14.57
64115;BME280;62188;35.640;139.748;2023-03-01T02:40:42;101806.28;;;24.71;13.97
64115;BME280;62188;35.640;139.748;2023-03-01T02:43:10;101803.47;;;24.80;13.51
64115;BME280;62188;35.640;139.748;2023-03-01T02:45:33;101799.57;;;24.67;12.99
64115;BME280;62188;35.640;139.748;2023-03-01T02:47:58;101789.87;;;24.47;12.77
64115;BME280;62188;35.640;139.748;2023-03-01T02:52:56;101783.31;;;23.70;12.12
64115;BME280;62188;35.640;139.748;2023-03-01T02:55:17;101775.21;;;23.64;12.54
64115;BME280;62188;35.640;139.748;2023-03-01T02:57:42;101770.70;;;23.63;12.55
64115;BME280;62188;35.640;139.748;2023-03-01T03:00:09;101765.82;;;24.13;13.04
64115;BME280;62188;35.640;139.748;2023-03-01T03:02:32;101761.56;;;23.79;13.12
64115;BME280;62188;35.640;139.748;2023-03-01T03:04:57;101758.25;;;24.32;13.28
64115;BME280;62188;35.640;139.748;2023-03-01T03:07:22;101748.56;;;24.26;13.39
64115;BME280;62188;35.640;139.748;2023-03-01T03:09:48;101743.97;;;24.24;13.48
64115;BME280;62188;35.640;139.748;2023-03-01T03:12:13;101739.87;;;24.38;13.00
64115;BME280;62188;35.640;139.748;2023-03-01T03:14:39;101735.45;;;24.47;12.91
64115;BME280;62188;35.640;139.748;2023-03-01T03:17:04;101728.73;;;24.12;13.26
64115;BME280;62188;35.640;139.748;2023-03-01T03:19:30;101722.00;;;24.23;13.26
64115;BME280;62188;35.640;139.748;2023-03-01T03:21:55;101718.86;;;24.08;13.76
64115;BME280;62188;35.640;139.748;2023-03-01T03:24:21;101715.71;;;24.42;13.59
64115;BME280;62188;35.640;139.748;2023-03-01T03:26:46;101705.86;;;24.59;13.78
64115;BME280;62188;35.640;139.748;2023-03-01T03:29:11;101697.86;;;24.69;13.96
64115;BME280;62188;35.640;139.748;2023-03-01T03:31:37;101694.56;;;24.79;14.17
64115;BME280;62188;35.640;139.748;2023-03-01T03:34:03;101684.50;;;24.60;14.35
64115;BME280;62188;35.640;139.748;2023-03-01T03:36:28;101680.08;;;24.81;14.34
64115;BME280;62188;35.640;139.748;2023-03-01T03:38:54;101682.72;;;24.90;14.43
64115;BME280;62188;35.640;139.748;2023-03-01T03:41:19;101679.11;;;24.52;14.57
64115;BME280;62188;35.640;139.748;2023-03-01T03:43:44;101669.77;;;25.02;14.36
64115;BME280;62188;35.640;139.748;2023-03-01T03:46:11;101666.47;;;24.52;14.60
64115;BME280;62188;35.640;139.748;2023-03-01T03:48:38;101663.65;;;24.41;14.58
64115;BME280;62188;35.640;139.748;2023-03-01T03:51:01;101659.24;;;24.33;14.85
64115;BME280;62188;35.640;139.748;2023-03-01T03:53:28;101649.32;;;24.34;14.58
64115;BME280;62188;35.640;139.748;2023-03-01T03:55:51;101634.20;;;24.18;15.16
64115;BME280;62188;35.640;139.748;2023-03-01T03:58:17;101629.21;;;24.60;14.95
64115;BME280;62188;35.640;139.748;2023-03-01T04:00:45;101625.73;;;24.79;14.79
64115;BME280;62188;35.640;139.748;2023-03-01T04:03:09;101623.04;;;24.57;14.86
64115;BME280;62188;35.640;139.748;2023-03-01T04:05:33;101616.92;;;23.81;14.59
64115;BME280;62188;35.640;139.748;2023-03-01T04:08:00;101610.24;;;23.77;14.73
64115;BME280;62188;35.640;139.748;2023-03-01T04:10:24;101604.56;;;23.68;14.91
64115;BME280;62188;35.640;139.748;2023-03-01T04:12:50;101602.75;;;23.58;15.03
64115;BME280;62188;35.640;139.748;2023-03-01T04:15:15;101597.46;;;23.35;14.97
64115;BME280;62188;35.640;139.748;2023-03-01T04:17:42;101590.29;;;23.45;15.61
64115;BME280;62188;35.640;139.748;2023-03-01T04:20:08;101593.71;;;23.68;15.03
64115;BME280;62188;35.640;139.748;2023-03-01T04:22:31;101589.88;;;23.19;15.20
64115;BME280;62188;35.640;139.748;2023-03-01T04:24:57;101585.32;;;23.11;15.12
64115;BME280;62188;35.640;139.748;2023-03-01T04:27:23;101586.42;;;23.01;15.42
64115;BME280;62188;35.640;139.748;2023-03-01T04:29:48;101587.05;;;22.97;15.15
64115;BME280;62188;35.640;139.748;2023-03-01T04:32:14;101583.98;;;22.77;14.78
64115;BME280;62188;35.640;139.748;2023-03-01T04:34:39;101577.13;;;22.58;14.68
64115;BME280;62188;35.640;139.748;2023-03-01T04:37:04;101571.02;;;22.58;14.72
64115;BME280;62188;35.640;139.748;2023-03-01T04:39:30;101568.30;;;22.99;14.87
64115;BME280;62188;35.640;139.748;2023-03-01T04:41:55;101568.38;;;23.01;15.00
64115;BME280;62188;35.640;139.748;2023-03-01T04:44:21;101566.17;;;22.99;15.06
64115;BME280;62188;35.640;139.748;2023-03-01T04:46:48;101558.96;;;22.39;15.18
64115;BME280;62188;35.640;139.748;2023-03-01T04:49:12;101552.30;;;22.71;15.28
64115;BME280;62188;35.640;139.748;2023-03-01T04:51:37;101550.50;;;22.48;15.55
64115;BME280;62188;35.640;139.748;2023-03-01T04:54:03;101555.37;;;22.65;15.23
64115;BME280;62188;35.640;139.748;2023-03-01T04:56:28;101546.76;;;21.93;15.43
64115;BME280;62188;35.640;139.748;2023-03-01T04:58:55;101541.59;;;21.84;15.49
64115;BME280;62188;35.640;139.748;2023-03-01T05:01:21;101542.66;;;21.68;15.64
64115;BME280;62188;35.640;139.748;2023-03-01T05:03:47;101538.09;;;21.67;16.05
64115;BME280;62188;35.640;139.748;2023-03-01T05:06:11;101533.17;;;21.22;16.18
64115;BME280;62188;35.640;139.748;2023-03-01T05:08:36;101525.86;;;20.97;16.51
64115;BME280;62188;35.640;139.748;2023-03-01T05:11:02;101527.71;;;21.08;16.65
64115;BME280;62188;35.640;139.748;2023-03-01T05:13:27;101532.28;;;20.88;16.67
64115;BME280;62188;35.640;139.748;2023-03-01T05:15:56;101533.75;;;20.91;16.85
64115;BME280;62188;35.640;139.748;2023-03-01T05:18:19;101526.34;;;20.47;17.16
64115;BME280;62188;35.640;139.748;2023-03-01T05:20:46;101518.57;;;20.66;17.34
64115;BME280;62188;35.640;139.748;2023-03-01T05:23:10;101517.17;;;20.78;17.42
64115;BME280;62188;35.640;139.748;2023-03-01T05:25:35;101519.59;;;20.86;17.60
64115;BME280;62188;35.640;139.748;2023-03-01T05:27:59;101520.06;;;20.74;17.57
64115;BME280;62188;35.640;139.748;2023-03-01T05:30:26;101510.95;;;20.60;17.74
64115;BME280;62188;35.640;139.748;2023-03-01T05:32:52;101506.47;;;20.63;17.88
64115;BME280;62188;35.640;139.748;2023-03-01T05:35:17;101506.74;;;20.49;18.04
64115;BME280;62188;35.640;139.748;2023-03-01T05:37:43;101504.00;;;20.26;17.92
64115;BME280;62188;35.640;139.748;2023-03-01T05:40:08;101500.62;;;20.34;18.07
64115;BME280;62188;35.640;139.748;2023-03-01T05:44:58;101488.11;;;19.99;18.28
64115;BME280;62188;35.640;139.748;2023-03-01T05:47:23;101490.24;;;20.08;18.42
64115;BME280;62188;35.640;139.748;2023-03-01T05:49:49;101485.67;;;20.31;18.57
64115;BME280;62188;35.640;139.748;2023-03-01T05:52:15;101484.83;;;19.94;18.85
64115;BME280;62188;35.640;139.748;2023-03-01T05:54:40;101485.54;;;20.18;19.04
64115;BME280;62188;35.640;139.748;2023-03-01T05:57:05;101483.81;;;20.04;18.97
64115;BME280;62188;35.640;139.748;2023-03-01T05:59:31;101483.21;;;20.16;19.24
64115;BME280;62188;35.640;139.748;2023-03-01T06:01:57;101479.71;;;19.70;19.14
64115;BME280;62188;35.640;139.748;2023-03-01T06:04:22;101479.77;;;19.73;19.32
64115;BME280;62188;35.640;139.748;2023-03-01T06:06:48;101480.65;;;19.84;19.63
64115;BME280;62188;35.640;139.748;2023-03-01T06:09:13;101482.32;;;20.09;19.34
64115;BME280;62188;35.640;139.748;2023-03-01T06:11:39;101479.95;;;20.08;19.43
64115;BME280;62188;35.640;139.748;2023-03-01T06:14:05;101474.45;;;19.51;19.43
64115;BME280;62188;35.640;139.748;2023-03-01T06:16:30;101469.11;;;19.84;19.22
64115;BME280;62188;35.640;139.748;2023-03-01T06:18:55;101469.99;;;19.65;19.13
64115;BME280;62188;35.640;139.748;2023-03-01T06:21:20;101468.06;;;19.66;19.56
64115;BME280;62188;35.640;139.748;2023-03-01T06:23:46;101462.26;;;19.79;19.59
64115;BME280;62188;35.640;139.748;2023-03-01T06:26:11;101461.29;;;19.73;19.67
64115;BME280;62188;35.640;139.748;2023-03-01T06:28:37;101455.10;;;20.09;19.74
64115;BME280;62188;35.640;139.748;2023-03-01T06:31:02;101457.33;;;19.96;19.64
64115;BME280;62188;35.640;139.748;2023-03-01T06:33:28;101458.03;;;19.88;19.63
64115;BME280;62188;35.640;139.748;2023-03-01T06:35:55;101457.17;;;20.06;19.87
64115;BME280;62188;35.640;139.748;2023-03-01T06:38:18;101458.01;;;19.88;19.06
64115;BME280;62188;35.640;139.748;2023-03-01T06:40:44;101455.61;;;20.05;19.28
64115;BME280;62188;35.640;139.748;2023-03-01T06:43:09;101454.84;;;20.19;19.32
64115;BME280;62188;35.640;139.748;2023-03-01T06:45:36;101452.24;;;20.05;19.11
64115;BME280;62188;35.640;139.748;2023-03-01T06:48:05;101451.70;;;20.34;19.15
64115;BME280;62188;35.640;139.748;2023-03-01T06:50:26;101452.78;;;20.35;19.19
64115;BME280;62188;35.640;139.748;2023-03-01T06:52:56;101449.58;;;19.90;19.02
64115;BME280;62188;35.640;139.748;2023-03-01T06:55:17;101451.70;;;19.89;19.01
64115;BME280;62188;35.640;139.748;2023-03-01T06:57:43;101447.43;;;20.48;18.96
64115;BME280;62188;35.640;139.748;2023-03-01T07:00:09;101446.41;;;20.26;18.92
64115;BME280;62188;35.640;139.748;2023-03-01T07:02:33;101446.55;;;19.98;19.02
64115;BME280;62188;35.640;139.748;2023-03-01T07:05:00;101442.08;;;20.20;19.36
64115;BME280;62188;35.640;139.748;2023-03-01T07:07:25;101441.67;;;20.42;19.52
64115;BME280;62188;35.640;139.748;2023-03-01T07:09:50;101435.83;;;20.41;19.68
64115;BME280;62188;35.640;139.748;2023-03-01T07:12:16;101436.02;;;19.91;19.84
64115;BME280;62188;35.640;139.748;2023-03-01T07:14:43;101434.04;;;19.82;19.96
64115;BME280;62188;35.640;139.748;2023-03-01T07:17:07;101434.95;;;20.07;20.23
64115;BME280;62188;35.640;139.748;2023-03-01T07:19:33;101431.14;;;20.06;20.43
64115;BME280;62188;35.640;139.748;2023-03-01T07:21:58;101433.39;;;19.80;20.60
64115;BME280;62188;35.640;139.748;2023-03-01T07:24:23;101439.47;;;19.85;20.81
64115;BME280;62188;35.640;139.748;2023-03-01T07:26:50;101438.76;;;19.89;20.91
64115;BME280;62188;35.640;139.748;2023-03-01T07:29:14;101439.39;;;19.82;21.08
64115;BME280;62188;35.640;139.748;2023-03-01T07:31:40;101439.83;;;19.57;21.36
64115;BME280;62188;35.640;139.748;2023-03-01T07:34:05;101442.36;;;19.39;21.50
64115;BME280;62188;35.640;139.748;2023-03-01T07:36:31;101441.62;;;19.72;21.45
64115;BME280;62188;35.640;139.748;2023-03-01T07:38:56;101443.75;;;19.53;21.61
64115;BME280;62188;35.640;139.748;2023-03-01T07:41:22;101449.19;;;19.32;21.68
64115;BME280;62188;35.640;139.748;2023-03-01T07:43:47;101449.49;;;19.26;21.83
64115;BME280;62188;35.640;139.748;2023-03-01T07:46:13;101449.75;;;19.69;21.74
64115;BME280;62188;35.640;139.748;2023-03-01T07:48:39;101445.35;;;19.35;21.82
64115;BME280;62188;35.640;139.748;2023-03-01T07:51:07;101441.81;;;19.38;21.70
64115;BME280;62188;35.640;139.748;2023-03-01T07:53:30;101434.79;;;19.52;21.59
64115;BME280;62188;35.640;139.748;2023-03-01T07:56:01;101433.84;;;19.29;21.38
64115;BME280;62188;35.640;139.748;2023-03-01T07:58:21;101432.36;;;19.57;21.38
64115;BME280;62188;35.640;139.748;2023-03-01T08:00:47;101426.44;;;19.36;21.31
64115;BME280;62188;35.640;139.748;2023-03-01T08:03:12;101429.66;;;19.45;21.44
64115;BME280;62188;35.640;139.748;2023-03-01T08:05:42;101434.41;;;19.41;21.52
64115;BME280;62188;35.640;139.748;2023-03-01T08:08:04;101426.63;;;19.34;21.55
64115;BME280;62188;35.640;139.748;2023-03-01T08:10:28;101428.40;;;19.38;21.50
64115;BME280;62188;35.640;139.748;2023-03-01T08:12:55;101424.82;;;19.34;21.54
64115;BME280;62188;35.640;139.748;2023-03-01T08:15:21;101419.38;;;19.13;21.65
64115;BME280;62188;35.640;139.748;2023-03-01T08:17:46;101417.73;;;19.63;21.91
64115;BME280;62188;35.640;139.748;2023-03-01T08:20:12;101420.88;;;19.19;22.00
64115;BME280;62188;35.640;139.748;2023-03-01T08:22:42;101425.21;;;19.36;22.62
64115;BME280;62188;35.640;139.748;2023-03-01T08:25:02;101420.69;;;19.18;22.82
64115;BME280;62188;35.640;139.748;2023-03-01T08:27:28;101419.45;;;19.31;23.12
64115;BME280;62188;35.640;139.748;2023-03-01T08:30:00;101424.48;;;19.12;24.00
64115;BME280;62188;35.640;139.748;2023-03-01T08:32:19;101428.33;;;19.26;24.97
64115;BME280;62188;35.640;139.748;2023-03-01T08:34:47;101423.17;;;18.83;25.60
64115;BME280;62188;35.640;139.748;2023-03-01T08:37:10;101422.83;;;19.01;25.37
64115;BME280;62188;35.640;139.748;2023-03-01T08:39:45;101418.67;;;19.20;26.55
64115;BME280;62188;35.640;139.748;2023-03-01T08:42:01;101410.50;;;19.04;26.20
64115;BME280;62188;35.640;139.748;2023-03-01T08:44:26;101414.26;;;19.12;27.12
64115;BME280;62188;35.640;139.748;2023-03-01T08:46:52;101412.90;;;19.05;27.30
64115;BME280;62188;35.640;139.748;2023-03-01T08:49:20;101408.58;;;18.95;27.73
64115;BME280;62188;35.640;139.748;2023-03-01T08:51:43;101406.00;;;18.72;27.74
64115;BME280;62188;35.640;139.748;2023-03-01T08:54:11;101405.92;;;18.76;27.85
64115;BME280;62188;35.640;139.748;2023-03-01T08:56:34;101405.58;;;18.58;28.23
64115;BME280;62188;35.640;139.748;2023-03-01T08:59:07;101404.96;;;18.63;28.60
64115;BME280;62188;35.640;139.748;2023-03-01T09:01:32;101399.77;;;18.70;28.62
64115;BME280;62188;35.640;139.748;2023-03-01T09:03:52;101400.70;;;18.22;28.67
64115;BME280;62188;35.640;139.748;2023-03-01T09:06:20;101396.19;;;18.75;28.43
64115;BME280;62188;35.640;139.748;2023-03-01T09:08:43;101401.83;;;18.76;28.40
64115;BME280;62188;35.640;139.748;2023-03-01T09:11:08;101411.11;;;18.87;28.25
64115;BME280;62188;35.640;139.748;2023-03-01T09:13:32;101408.15;;;18.56;28.29
64115;BME280;62188;35.640;139.748;2023-03-01T09:15:57;101411.35;;;18.70;28.07
64115;BME280;62188;35.640;139.748;2023-03-01T09:18:23;101406.00;;;18.67;27.89
64115;BME280;62188;35.640;139.748;2023-03-01T09:20:49;101401.70;;;18.64;27.89
64115;BME280;62188;35.640;139.748;2023-03-01T09:23:14;101404.67;;;18.48;27.73
64115;BME280;62188;35.640;139.748;2023-03-01T09:25:40;101401.64;;;18.46;27.66
64115;BME280;62188;35.640;139.748;2023-03-01T09:28:05;101402.41;;;18.49;27.59
64115;BME280;62188;35.640;139.748;2023-03-01T09:30:31;101403.95;;;18.17;27.63
64115;BME280;62188;35.640;139.748;2023-03-01T09:32:59;101398.24;;;18.43;27.49
64115;BME280;62188;35.640;139.748;2023-03-01T09:35:26;101394.13;;;18.61;27.33
64115;BME280;62188;35.640;139.748;2023-03-01T09:37:47;101394.14;;;18.69;27.20
64115;BME280;62188;35.640;139.748;2023-03-01T09:40:16;101389.62;;;18.54;27.29
64115;BME280;62188;35.640;139.748;2023-03-01T09:42:48;101393.90;;;18.59;27.25
64115;BME280;62188;35.640;139.748;2023-03-01T09:45:06;101385.94;;;18.41;27.11
64115;BME280;62188;35.640;139.748;2023-03-01T09:47:33;101394.93;;;18.90;26.96
64115;BME280;62188;35.640;139.748;2023-03-01T09:50:05;101389.78;;;18.57;26.79
64115;BME280;62188;35.640;139.748;2023-03-01T09:52:28;101388.97;;;18.62;26.68
64115;BME280;62188;35.640;139.748;2023-03-01T09:57:28;101386.99;;;18.34;26.40
64115;BME280;62188;35.640;139.748;2023-03-01T10:02:14;101392.38;;;18.31;26.29
64115;BME280;62188;35.640;139.748;2023-03-01T10:04:38;101400.64;;;18.41;26.25
64115;BME280;62188;35.640;139.748;2023-03-01T10:07:05;101404.13;;;18.28;26.15
64115;BME280;62188;35.640;139.748;2023-03-01T10:09:19;101387.24;;;18.07;26.10
64115;BME280;62188;35.640;139.748;2023-03-01T10:11:56;101387.20;;;18.00;26.29
64115;BME280;62188;35.640;139.748;2023-03-01T10:14:18;101396.84;;;18.13;26.09
64115;BME280;62188;35.640;139.748;2023-03-01T10:16:43;101389.73;;;18.42;26.10
64115;BME280;62188;35.640;139.748;2023-03-01T10:19:02;101403.44;;;18.31;26.02
64115;BME280;62188;35.640;139.748;2023-03-01T10:21:33;101406.76;;;18.61;26.08
64115;BME280;62188;35.640;139.748;2023-03-01T10:23:53;101403.39;;;18.22;26.29
64115;BME280;62188;35.640;139.748;2023-03-01T10:26:29;101402.27;;;18.31;26.37
64115;BME280;62188;35.640;139.748;2023-03-01T10:28:52;101400.86;;;18.46;26.51
64115;BME280;62188;35.640;139.748;2023-03-01T10:31:14;101404.58;;;18.61;26.36
64115;BME280;62188;35.640;139.748;2023-03-01T10:33:37;101406.75;;;18.61;26.67
64115;BME280;62188;35.640;139.748;2023-03-01T10:35:59;101395.36;;;18.63;27.34
64115;BME280;62188;35.640;139.748;2023-03-01T10:38:25;101396.30;;;18.78;26.94
64115;BME280;62188;35.640;139.748;2023-03-01T10:40:55;101391.20;;;18.88;27.05
64115;BME280;62188;35.640;139.748;2023-03-01T10:43:16;101392.83;;;18.77;27.12
64115;BME280;62188;35.640;139.748;2023-03-01T10:45:42;101392.06;;;18.87;27.99
64115;BME280;62188;35.640;139.748;2023-03-01T10:48:13;101383.82;;;19.12;27.09
64115;BME280;62188;35.640;139.748;2023-03-01T10:50:32;101389.99;;;19.04;27.16
64115;BME280;62188;35.640;139.748;2023-03-01T10:53:00;101386.46;;;18.76;27.84
64115;BME280;62188;35.640;139.748;2023-03-01T10:55:28;101375.58;;;19.05;27.30
64115;BME280;62188;35.640;139.748;2023-03-01T10:57:48;101382.60;;;19.09;26.53
64115;BME280;62188;35.640;139.748;2023-03-01T11:00:19;101386.79;;;18.88;26.65
64115;BME280;62188;35.640;139.748;2023-03-01T11:02:39;101380.81;;;18.63;26.70
64115;BME280;62188;35.640;139.748;2023-03-01T11:07:30;101382.25;;;18.75;26.90
64115;BME280;62188;35.640;139.748;2023-03-01T11:09:55;101390.66;;;18.39;26.76
64115;BME280;62188;35.640;139.748;2023-03-01T11:12:23;101381.96;;;18.40;26.92
64115;BME280;62188;35.640;139.748;2023-03-01T11:14:54;101379.60;;;18.43;27.15
64115;BME280;62188;35.640;139.748;2023-03-01T11:17:18;101378.18;;;18.62;28.71
64115;BME280;62188;35.640;139.748;2023-03-01T11:19:37;101376.96;;;18.74;27.96
64115;BME280;62188;35.640;139.748;2023-03-01T11:22:05;101380.38;;;18.59;27.40
64115;BME280;62188;35.640;139.748;2023-03-01T11:24:37;101369.16;;;18.45;27.40
64115;BME280;62188;35.640;139.748;2023-03-01T11:26:56;101375.75;;;18.13;27.38
64115;BME280;62188;35.640;139.748;2023-03-01T11:29:35;101373.90;;;18.28;27.46
64115;BME280;62188;35.640;139.748;2023-03-01T11:31:51;101385.32;;;18.12;27.64
64115;BME280;62188;35.640;139.748;2023-03-01T11:34:14;101376.88;;;18.19;27.67
64115;BME280;62188;35.640;139.748;2023-03-01T11:36:40;101383.24;;;17.97;27.76
64115;BME280;62188;35.640;139.748;2023-03-01T11:41:30;101388.43;;;17.90;27.92
64115;BME280;62188;35.640;139.748;2023-03-01T11:43:55;101378.49;;;17.83;28.09
64115;BME280;62188;35.640;139.748;2023-03-01T11:48:52;101363.49;;;17.71;28.49
64115;BME280;62188;35.640;139.748;2023-03-01T11:51:15;101365.42;;;18.05;28.48
64115;BME280;62188;35.640;139.748;2023-03-01T11:56:11;101362.84;;;18.03;28.48
64115;BME280;62188;35.640;139.748;2023-03-01T11:58:39;101360.52;;;17.79;29.10
64115;BME280;62188;35.640;139.748;2023-03-01T12:01:03;101360.65;;;17.63;29.12
64115;BME280;62188;35.640;139.748;2023-03-01T12:03:29;101365.32;;;17.83;29.02
64115;BME280;62188;35.640;139.748;2023-03-01T12:05:57;101362.81;;;17.93;29.10
64115;BME280;62188;35.640;139.748;2023-03-01T12:08:14;101359.16;;;18.02;29.10
64115;BME280;62188;35.640;139.748;2023-03-01T12:10:48;101346.71;;;18.01;29.17
64115;BME280;62188;35.640;139.748;2023-03-01T12:13:10;101360.16;;;18.11;29.19
64115;BME280;62188;35.640;139.748;2023-03-01T12:15:38;101348.27;;;17.88;29.41
64115;BME280;62188;35.640;139.748;2023-03-01T12:20:23;101349.54;;;18.07;29.49
64115;BME280;62188;35.640;139.748;2023-03-01T12:22:51;101350.65;;;18.10;29.77
64115;BME280;62188;35.640;139.748;2023-03-01T12:25:19;101348.26;;;18.09;29.63
64115;BME280;62188;35.640;139.748;2023-03-01T12:30:05;101343.23;;;17.87;30.15
64115;BME280;62188;35.640;139.748;2023-03-01T12:32:34;101342.93;;;17.69;30.52
64115;BME280;62188;35.640;139.748;2023-03-01T12:35:03;101341.74;;;17.90;30.26
64115;BME280;62188;35.640;139.748;2023-03-01T12:37:22;101335.42;;;17.97;30.15
64115;BME280;62188;35.640;139.748;2023-03-01T12:39:50;101334.38;;;17.89;30.31
64115;BME280;62188;35.640;139.748;2023-03-01T12:42:12;101331.25;;;17.97;30.27
64115;BME280;62188;35.640;139.748;2023-03-01T12:44:44;101322.46;;;18.02;30.20
64115;BME280;62188;35.640;139.748;2023-03-01T12:47:11;101319.27;;;18.02;30.17